createdAt,value
2022-11-14T00:00:14.036Z,52.55
2022-11-14T00:05:16.397Z,59.60
2022-11-14T00:10:18.996Z,58.65
2022-11-14T00:15:21.254Z,57.83
2022-11-14T00:20:23.615Z,52.85
2022-11-14T00:25:26.129Z,54.78
2022-11-14T00:30:28.947Z,53.90
2022-11-14T00:35:31.258Z,45.10
2022-11-14T00:40:33.457Z,42.47
2022-11-14T00:45:35.653Z,46.30
2022-11-14T00:50:38.640Z,44.38
2022-11-14T00:55:41.673Z,33.42
2022-11-14T01:00:43.964Z,36.63
2022-11-14T01:05:48.808Z,36.08
2022-11-14T01:10:51.824Z,37.05
2022-11-14T01:15:55.363Z,33.65
2022-11-14T01:20:58.338Z,32.05
2022-11-14T01:26:09.306Z,29.58
2022-11-14T01:31:15.993Z,31.95
2022-11-14T01:36:19.223Z,32.67
2022-11-14T01:41:22.250Z,32.90
2022-11-14T01:46:31.822Z,33.97
2022-11-14T01:51:42.070Z,33.40
2022-11-14T01:56:49.955Z,32.22
2022-11-14T02:01:54.145Z,34.13
2022-11-14T02:07:00.035Z,35.53
2022-11-14T02:12:05.527Z,38.88
2022-11-14T02:17:28.365Z,38.67
2022-11-14T02:22:30.625Z,39.80
2022-11-14T02:27:35.184Z,43.92
2022-11-14T02:33:08.854Z,40.95
2022-11-14T02:37:59.834Z,44.95
2022-11-14T02:43:02.121Z,48.67
2022-11-14T02:48:04.646Z,47.78
2022-11-14T02:53:06.836Z,45.95
2022-11-14T02:58:09.374Z,46.45
2022-11-14T03:03:11.907Z,46.00
2022-11-14T03:08:14.092Z,52.17
2022-11-14T03:13:16.330Z,51.47
2022-11-14T03:18:18.492Z,49.78
2022-11-14T03:23:20.655Z,45.67
2022-11-14T03:28:22.806Z,48.08
2022-11-14T03:33:25.397Z,40.83
2022-11-14T03:38:27.906Z,86.75
2022-11-14T03:43:34.706Z,62.47
2022-11-14T03:48:37.007Z,36.55
2022-11-14T03:53:39.170Z,53.42
2022-11-14T03:58:41.507Z,74.72
2022-11-14T04:03:43.688Z,31.75
2022-11-14T04:08:45.873Z,41.90
2022-11-14T04:13:48.070Z,31.33
2022-11-14T04:18:50.435Z,30.02
2022-11-14T04:23:52.635Z,27.40
2022-11-14T04:28:55.056Z,27.48
2022-11-14T04:33:57.435Z,28.65
2022-11-14T04:38:59.955Z,25.27
2022-11-14T04:44:02.877Z,29.67
2022-11-14T04:49:05.269Z,35.28
2022-11-14T04:54:07.447Z,44.10
2022-11-14T04:59:09.657Z,158.85
2022-11-14T05:04:12.002Z,102.68
2022-11-14T05:09:14.219Z,94.22
2022-11-14T05:14:16.676Z,100.93
2022-11-14T05:19:18.896Z,62.75
2022-11-14T05:24:21.128Z,62.90
2022-11-14T05:29:23.342Z,96.40
2022-11-14T05:34:26.055Z,59.47
2022-11-14T05:39:30.911Z,61.13
2022-11-14T05:44:33.208Z,70.22
2022-11-14T05:49:35.409Z,68.78
2022-11-14T05:54:37.896Z,57.05
2022-11-14T05:59:40.117Z,104.63
2022-11-14T06:04:42.427Z,84.03
2022-11-14T06:09:44.645Z,79.22
2022-11-14T06:14:46.821Z,82.18
2022-11-14T06:19:49.018Z,79.00
2022-11-14T06:24:51.386Z,88.43
2022-11-14T06:29:53.649Z,86.20
2022-11-14T06:34:55.876Z,84.85
2022-11-14T06:39:58.111Z,101.90
2022-11-14T06:45:00.337Z,97.57
2022-11-14T06:50:02.514Z,114.93
2022-11-14T06:55:05.055Z,95.32
2022-11-14T07:00:08.089Z,72.90
2022-11-14T07:05:10.457Z,61.05
2022-11-14T07:10:12.838Z,66.63
2022-11-14T07:15:15.196Z,71.22
2022-11-14T07:20:18.902Z,63.90
2022-11-14T07:25:23.230Z,55.22
2022-11-14T07:30:25.466Z,64.40
2022-11-14T07:35:28.004Z,56.30
2022-11-14T07:40:30.724Z,51.85
2022-11-14T07:45:33.442Z,55.80
2022-11-14T07:50:35.802Z,52.10
2022-11-14T07:55:39.196Z,52.65
2022-11-14T08:00:41.468Z,49.88
2022-11-14T08:05:43.770Z,48.38
2022-11-14T08:10:46.009Z,47.00
2022-11-14T08:15:48.178Z,40.80
2022-11-14T08:20:59.597Z,32.60
2022-11-14T08:26:01.883Z,46.20
2022-11-14T08:31:05.247Z,41.17
2022-11-14T08:36:08.195Z,33.05
2022-11-14T08:41:10.477Z,37.22
2022-11-14T08:46:12.825Z,33.05
2022-11-14T08:51:15.069Z,39.55
2022-11-14T08:56:17.481Z,31.77
2022-11-14T09:01:19.837Z,36.30
2022-11-14T09:06:22.196Z,31.60
2022-11-14T09:11:24.656Z,29.13
2022-11-14T09:16:26.896Z,26.25
2022-11-14T09:21:29.209Z,30.90
2022-11-14T09:26:31.432Z,29.98
2022-11-14T09:31:33.719Z,29.73
2022-11-14T09:36:36.101Z,26.00
2022-11-14T09:41:44.019Z,28.27
2022-11-14T09:46:50.755Z,23.75
2022-11-14T09:52:01.747Z,24.73
2022-11-14T09:57:04.037Z,26.08
2022-11-14T10:02:20.720Z,30.17
2022-11-14T10:07:25.537Z,25.58
2022-11-14T10:12:38.260Z,23.73
2022-11-14T10:17:45.971Z,26.00
2022-11-14T10:23:15.741Z,30.98
2022-11-14T10:28:17.913Z,23.73
2022-11-14T10:33:51.610Z,21.08
2022-11-14T10:39:05.799Z,24.70
2022-11-14T10:44:16.474Z,24.73
2022-11-14T10:49:22.037Z,27.42
2022-11-14T10:54:42.589Z,25.85
2022-11-14T10:59:44.983Z,26.17
2022-11-14T11:04:47.434Z,48.50
2022-11-14T11:10:18.725Z,25.70
2022-11-14T11:15:44.091Z,26.48
2022-11-14T11:21:03.725Z,28.40
2022-11-14T11:26:26.695Z,30.65
2022-11-14T11:31:29.204Z,22.35
2022-11-14T11:36:41.414Z,21.88
2022-11-14T11:47:16.088Z,23.70
2022-11-14T11:52:30.599Z,19.80
2022-11-14T11:57:55.715Z,18.10
2022-11-14T12:02:59.505Z,23.15
2022-11-14T12:08:10.002Z,20.23
2022-11-14T12:13:24.353Z,24.67
2022-11-14T12:18:54.624Z,23.00
2022-11-14T12:29:36.255Z,25.33
2022-11-14T12:34:42.618Z,19.05
2022-11-14T12:40:00.262Z,17.27
2022-11-14T12:45:02.651Z,21.88
2022-11-14T12:50:25.942Z,21.45
2022-11-14T12:55:48.489Z,19.08
2022-11-14T13:00:50.811Z,18.88
2022-11-14T13:06:01.793Z,18.00
2022-11-14T13:11:53.396Z,18.88
2022-11-14T13:17:37.392Z,14.43
2022-11-14T13:22:42.104Z,17.90
2022-11-14T13:33:07.792Z,18.58
2022-11-14T13:38:25.841Z,15.00
2022-11-14T13:43:43.555Z,15.07
2022-11-14T13:49:05.800Z,24.00
2022-11-14T13:54:17.460Z,18.83
2022-11-14T13:59:41.743Z,29.52
2022-11-14T14:05:04.826Z,23.15
2022-11-14T14:10:16.397Z,20.63
2022-11-14T14:15:27.734Z,20.65
2022-11-14T14:20:48.100Z,21.17
2022-11-14T14:26:25.899Z,17.75
2022-11-14T14:31:37.573Z,20.73
2022-11-14T14:36:50.953Z,20.00
2022-11-14T14:41:55.951Z,22.40
2022-11-14T14:46:58.897Z,25.02
2022-11-14T14:52:01.186Z,22.27
2022-11-14T14:57:03.907Z,27.23
2022-11-14T15:02:16.891Z,29.73
2022-11-14T15:07:25.400Z,29.20
2022-11-14T15:12:31.110Z,36.45
2022-11-14T15:17:35.998Z,38.63
2022-11-14T15:22:39.727Z,36.38
2022-11-14T15:27:50.683Z,33.40
2022-11-14T15:32:55.834Z,38.85
2022-11-14T15:38:43.597Z,33.80
2022-11-14T15:43:46.233Z,47.50
2022-11-14T15:48:48.453Z,34.97
2022-11-14T15:53:52.414Z,44.35
2022-11-14T15:58:54.916Z,38.97
2022-11-14T16:03:59.007Z,49.10
2022-11-14T16:09:01.222Z,43.72
2022-11-14T16:14:03.476Z,43.97
2022-11-14T16:19:07.268Z,63.67
2022-11-14T16:24:19.510Z,43.15
2022-11-14T16:29:21.849Z,48.38
2022-11-14T16:34:27.901Z,51.88
2022-11-14T16:39:30.492Z,50.78
2022-11-14T16:44:38.990Z,60.20
2022-11-14T16:49:44.101Z,72.93
2022-11-14T16:54:46.806Z,68.13
2022-11-14T16:59:49.017Z,86.57
2022-11-14T17:04:51.744Z,89.07
2022-11-14T17:09:53.901Z,74.22
2022-11-14T17:14:56.190Z,49.10
2022-11-14T17:19:58.602Z,68.80
2022-11-14T17:25:00.969Z,91.57
2022-11-14T17:30:03.175Z,78.15
2022-11-14T17:35:06.062Z,67.50
2022-11-14T17:40:14.199Z,71.35
2022-11-14T17:45:17.568Z,77.22
2022-11-14T17:50:19.907Z,88.20
2022-11-14T17:55:22.092Z,97.30
2022-11-14T18:00:24.365Z,100.45
2022-11-14T18:05:26.708Z,89.50
2022-11-14T18:10:28.900Z,108.28
2022-11-14T18:15:32.617Z,79.18
2022-11-14T18:20:38.008Z,71.10
2022-11-14T18:25:40.177Z,83.35
2022-11-14T18:30:43.738Z,68.57
2022-11-14T18:35:56.911Z,74.32
2022-11-14T18:41:03.910Z,59.72
2022-11-14T18:46:07.883Z,66.15
2022-11-14T18:51:31.259Z,59.03
2022-11-14T18:56:33.511Z,67.82
2022-11-14T19:01:36.374Z,70.43
2022-11-14T19:06:41.214Z,62.40
2022-11-14T19:12:02.449Z,72.47
2022-11-14T19:17:07.430Z,69.38
2022-11-14T19:22:09.701Z,64.63
2022-11-14T19:27:12.001Z,59.55
2022-11-14T19:32:14.316Z,65.53
2022-11-14T19:37:16.660Z,68.20
2022-11-14T19:42:19.192Z,73.68
2022-11-14T19:47:21.389Z,70.18
2022-11-14T19:52:23.750Z,74.88
2022-11-14T19:57:25.963Z,81.35
2022-11-14T20:02:30.010Z,88.47
2022-11-14T20:07:33.478Z,90.50
2022-11-14T20:12:36.049Z,76.22
2022-11-14T20:17:38.293Z,74.40
2022-11-14T20:22:40.677Z,76.68
2022-11-14T20:27:42.906Z,59.47
2022-11-14T20:32:45.106Z,60.67
2022-11-14T20:37:47.997Z,55.95
2022-11-14T20:42:50.621Z,49.35
2022-11-14T20:47:54.162Z,49.25
2022-11-14T20:52:56.563Z,40.40
2022-11-14T20:57:58.992Z,51.47
2022-11-14T21:03:01.222Z,46.95
2022-11-14T21:08:03.503Z,55.78
2022-11-14T21:13:27.467Z,62.17
2022-11-14T21:18:30.253Z,60.33
2022-11-14T21:23:33.016Z,54.70
2022-11-14T21:28:38.331Z,54.70
2022-11-14T21:33:40.672Z,60.78
2022-11-14T21:38:43.143Z,79.60
2022-11-14T21:43:46.257Z,74.72
2022-11-14T21:48:49.942Z,83.22
2022-11-14T21:53:55.891Z,70.50
2022-11-14T21:59:14.660Z,76.93
2022-11-14T22:04:16.976Z,70.63
2022-11-14T22:09:19.365Z,70.05
2022-11-14T22:14:21.615Z,67.65
2022-11-14T22:19:24.744Z,66.63
2022-11-14T22:24:26.957Z,72.47
2022-11-14T22:29:29.355Z,77.70
2022-11-14T22:34:31.560Z,70.85
2022-11-14T22:39:33.770Z,66.63
2022-11-14T22:44:35.958Z,85.22
2022-11-14T22:49:38.151Z,138.25
2022-11-14T22:54:40.315Z,152.02
2022-11-14T22:59:42.545Z,168.13
2022-11-14T23:04:44.753Z,125.80
2022-11-14T23:09:46.952Z,89.68
2022-11-14T23:14:49.306Z,93.32
2022-11-14T23:19:51.494Z,88.28
2022-11-14T23:24:53.725Z,80.90
2022-11-14T23:29:56.059Z,76.13
2022-11-14T23:34:58.250Z,68.25
2022-11-14T23:40:00.632Z,64.53
2022-11-14T23:45:03.205Z,72.32
2022-11-14T23:50:05.657Z,83.68
2022-11-14T23:55:08.162Z,68.93
